sensor_id;sensor_type;location;lat;lon;timestamp;P1;durP1;ratioP1;P2;durP2;ratioP2
40244;SDS011;25963;42.694;23.600;2022-12-07T00:01:21;29.95;;;15.32;;
40244;SDS011;25963;42.694;23.600;2022-12-07T00:03:52;27.25;;;15.52;;
40244;SDS011;25963;42.694;23.600;2022-12-07T00:06:19;25.02;;;13.35;;
40244;SDS011;25963;42.694;23.600;2022-12-07T00:08:45;28.88;;;16.08;;
40244;SDS011;25963;42.694;23.600;2022-12-07T00:11:16;33.78;;;15.93;;
40244;SDS011;25963;42.694;23.600;2022-12-07T00:13:43;32.83;;;15.80;;
40244;SDS011;25963;42.694;23.600;2022-12-07T00:16:16;30.30;;;15.00;;
40244;SDS011;25963;42.694;23.600;2022-12-07T00:18:42;30.08;;;15.32;;
40244;SDS011;25963;42.694;23.600;2022-12-07T00:21:13;23.77;;;13.52;;
40244;SDS011;25963;42.694;23.600;2022-12-07T00:23:45;32.83;;;13.75;;
40244;SDS011;25963;42.694;23.600;2022-12-07T00:26:13;29.13;;;14.75;;
40244;SDS011;25963;42.694;23.600;2022-12-07T00:28:39;29.52;;;14.63;;
40244;SDS011;25963;42.694;23.600;2022-12-07T00:31:09;33.10;;;14.93;;
40244;SDS011;25963;42.694;23.600;2022-12-07T00:33:37;25.38;;;13.73;;
40244;SDS011;25963;42.694;23.600;2022-12-07T00:36:04;28.92;;;15.70;;
40244;SDS011;25963;42.694;23.600;2022-12-07T00:38:33;31.45;;;16.25;;
40244;SDS011;25963;42.694;23.600;2022-12-07T00:41:01;29.20;;;16.55;;
40244;SDS011;25963;42.694;23.600;2022-12-07T00:43:28;31.70;;;14.98;;
40244;SDS011;25963;42.694;23.600;2022-12-07T00:45:54;29.38;;;15.15;;
40244;SDS011;25963;42.694;23.600;2022-12-07T00:48:20;25.48;;;14.10;;
40244;SDS011;25963;42.694;23.600;2022-12-07T00:50:46;30.77;;;13.90;;
40244;SDS011;25963;42.694;23.600;2022-12-07T00:53:12;27.55;;;14.90;;
40244;SDS011;25963;42.694;23.600;2022-12-07T00:55:38;33.10;;;16.15;;
40244;SDS011;25963;42.694;23.600;2022-12-07T00:58:04;31.83;;;15.00;;
40244;SDS011;25963;42.694;23.600;2022-12-07T01:00:29;29.75;;;15.43;;
40244;SDS011;25963;42.694;23.600;2022-12-07T01:02:55;34.58;;;17.98;;
40244;SDS011;25963;42.694;23.600;2022-12-07T01:05:21;30.67;;;14.48;;
40244;SDS011;25963;42.694;23.600;2022-12-07T01:07:46;28.77;;;15.68;;
40244;SDS011;25963;42.694;23.600;2022-12-07T01:10:12;34.20;;;16.73;;
40244;SDS011;25963;42.694;23.600;2022-12-07T01:12:38;30.95;;;15.02;;
40244;SDS011;25963;42.694;23.600;2022-12-07T01:15:04;35.97;;;16.67;;
40244;SDS011;25963;42.694;23.600;2022-12-07T01:17:30;30.33;;;15.95;;
40244;SDS011;25963;42.694;23.600;2022-12-07T01:19:55;28.80;;;15.65;;
40244;SDS011;25963;42.694;23.600;2022-12-07T01:22:21;28.92;;;15.90;;
40244;SDS011;25963;42.694;23.600;2022-12-07T01:24:46;30.02;;;16.00;;
40244;SDS011;25963;42.694;23.600;2022-12-07T01:27:12;34.55;;;16.85;;
40244;SDS011;25963;42.694;23.600;2022-12-07T01:29:38;35.95;;;16.85;;
40244;SDS011;25963;42.694;23.600;2022-12-07T01:32:04;32.63;;;15.90;;
40244;SDS011;25963;42.694;23.600;2022-12-07T01:34:29;32.08;;;16.33;;
40244;SDS011;25963;42.694;23.600;2022-12-07T01:36:55;29.05;;;14.27;;
40244;SDS011;25963;42.694;23.600;2022-12-07T01:39:20;32.97;;;15.32;;
40244;SDS011;25963;42.694;23.600;2022-12-07T01:41:46;28.58;;;16.25;;
40244;SDS011;25963;42.694;23.600;2022-12-07T01:46:37;32.38;;;16.20;;
40244;SDS011;25963;42.694;23.600;2022-12-07T01:49:03;30.17;;;16.48;;
40244;SDS011;25963;42.694;23.600;2022-12-07T01:51:33;32.38;;;15.15;;
40244;SDS011;25963;42.694;23.600;2022-12-07T01:54:00;31.55;;;15.70;;
40244;SDS011;25963;42.694;23.600;2022-12-07T01:56:26;28.70;;;15.93;;
40244;SDS011;25963;42.694;23.600;2022-12-07T01:58:53;31.80;;;15.85;;
40244;SDS011;25963;42.694;23.600;2022-12-07T02:01:22;26.42;;;14.48;;
40244;SDS011;25963;42.694;23.600;2022-12-07T02:03:47;38.95;;;16.80;;
40244;SDS011;25963;42.694;23.600;2022-12-07T02:06:15;42.10;;;21.88;;
40244;SDS011;25963;42.694;23.600;2022-12-07T02:08:44;33.75;;;18.50;;
40244;SDS011;25963;42.694;23.600;2022-12-07T02:11:10;31.98;;;17.98;;
40244;SDS011;25963;42.694;23.600;2022-12-07T02:13:36;29.35;;;15.85;;
40244;SDS011;25963;42.694;23.600;2022-12-07T02:16:16;33.42;;;16.35;;
40244;SDS011;25963;42.694;23.600;2022-12-07T02:21:32;35.15;;;17.92;;
40244;SDS011;25963;42.694;23.600;2022-12-07T02:34:51;33.25;;;17.85;;
40244;SDS011;25963;42.694;23.600;2022-12-07T02:42:51;39.65;;;17.75;;
40244;SDS011;25963;42.694;23.600;2022-12-07T02:45:24;42.25;;;20.75;;
40244;SDS011;25963;42.694;23.600;2022-12-07T02:47:52;36.22;;;17.58;;
40244;SDS011;25963;42.694;23.600;2022-12-07T02:50:23;40.97;;;19.70;;
40244;SDS011;25963;42.694;23.600;2022-12-07T02:52:49;45.95;;;20.83;;
40244;SDS011;25963;42.694;23.600;2022-12-07T02:55:15;41.63;;;19.85;;
40244;SDS011;25963;42.694;23.600;2022-12-07T03:03:14;36.92;;;16.70;;
40244;SDS011;25963;42.694;23.600;2022-12-07T03:05:50;38.08;;;18.80;;
40244;SDS011;25963;42.694;23.600;2022-12-07T03:11:14;40.85;;;19.70;;
40244;SDS011;25963;42.694;23.600;2022-12-07T03:18:59;39.17;;;18.50;;
40244;SDS011;25963;42.694;23.600;2022-12-07T03:21:33;78.47;;;38.35;;
40244;SDS011;25963;42.694;23.600;2022-12-07T03:24:04;46.30;;;23.05;;
40244;SDS011;25963;42.694;23.600;2022-12-07T03:26:36;43.47;;;23.15;;
40244;SDS011;25963;42.694;23.600;2022-12-07T03:29:06;71.38;;;35.72;;
40244;SDS011;25963;42.694;23.600;2022-12-07T03:31:40;49.28;;;24.95;;
40244;SDS011;25963;42.694;23.600;2022-12-07T03:36:42;97.28;;;45.08;;
40244;SDS011;25963;42.694;23.600;2022-12-07T03:39:17;557.50;;;235.68;;
40244;SDS011;25963;42.694;23.600;2022-12-07T03:41:46;304.45;;;117.18;;
40244;SDS011;25963;42.694;23.600;2022-12-07T03:44:12;1015.58;;;442.05;;
40244;SDS011;25963;42.694;23.600;2022-12-07T03:52:04;545.15;;;220.63;;
40244;SDS011;25963;42.694;23.600;2022-12-07T03:54:34;114.93;;;45.15;;
40244;SDS011;25963;42.694;23.600;2022-12-07T03:57:05;458.95;;;166.05;;
40244;SDS011;25963;42.694;23.600;2022-12-07T03:59:32;660.30;;;263.23;;
40244;SDS011;25963;42.694;23.600;2022-12-07T04:02:02;523.85;;;193.77;;
40244;SDS011;25963;42.694;23.600;2022-12-07T04:04:29;87.22;;;38.65;;
40244;SDS011;25963;42.694;23.600;2022-12-07T04:06:54;55.38;;;28.00;;
40244;SDS011;25963;42.694;23.600;2022-12-07T04:09:20;135.60;;;54.65;;
40244;SDS011;25963;42.694;23.600;2022-12-07T04:11:45;235.10;;;81.90;;
40244;SDS011;25963;42.694;23.600;2022-12-07T04:14:11;100.28;;;38.50;;
40244;SDS011;25963;42.694;23.600;2022-12-07T04:16:46;464.48;;;151.50;;
40244;SDS011;25963;42.694;23.600;2022-12-07T04:19:17;802.17;;;314.23;;
40244;SDS011;25963;42.694;23.600;2022-12-07T04:21:44;157.05;;;56.85;;
40244;SDS011;25963;42.694;23.600;2022-12-07T04:24:11;559.05;;;208.35;;
40244;SDS011;25963;42.694;23.600;2022-12-07T04:26:37;421.88;;;134.82;;
40244;SDS011;25963;42.694;23.600;2022-12-07T04:29:03;180.73;;;58.80;;
40244;SDS011;25963;42.694;23.600;2022-12-07T04:31:28;145.70;;;45.65;;
40244;SDS011;25963;42.694;23.600;2022-12-07T04:33:54;62.65;;;26.23;;
40244;SDS011;25963;42.694;23.600;2022-12-07T04:36:19;679.45;;;273.13;;
40244;SDS011;25963;42.694;23.600;2022-12-07T04:38:45;669.22;;;265.70;;
40244;SDS011;25963;42.694;23.600;2022-12-07T04:41:11;184.07;;;68.63;;
40244;SDS011;25963;42.694;23.600;2022-12-07T04:43:37;49.72;;;23.02;;
40244;SDS011;25963;42.694;23.600;2022-12-07T04:46:03;526.70;;;229.65;;
40244;SDS011;25963;42.694;23.600;2022-12-07T04:48:28;284.60;;;112.38;;
40244;SDS011;25963;42.694;23.600;2022-12-07T04:50:54;460.00;;;189.68;;
40244;SDS011;25963;42.694;23.600;2022-12-07T04:53:20;131.43;;;57.95;;
40244;SDS011;25963;42.694;23.600;2022-12-07T04:55:46;46.72;;;21.77;;
40244;SDS011;25963;42.694;23.600;2022-12-07T04:58:12;37.90;;;20.05;;
40244;SDS011;25963;42.694;23.600;2022-12-07T05:00:38;54.22;;;26.55;;
40244;SDS011;25963;42.694;23.600;2022-12-07T05:03:04;104.70;;;48.90;;
40244;SDS011;25963;42.694;23.600;2022-12-07T05:05:30;230.98;;;110.57;;
40244;SDS011;25963;42.694;23.600;2022-12-07T05:07:55;77.63;;;38.20;;
40244;SDS011;25963;42.694;23.600;2022-12-07T05:10:20;100.68;;;49.80;;
40244;SDS011;25963;42.694;23.600;2022-12-07T05:12:46;77.50;;;43.97;;
40244;SDS011;25963;42.694;23.600;2022-12-07T05:15:12;94.20;;;49.00;;
40244;SDS011;25963;42.694;23.600;2022-12-07T05:17:38;53.80;;;27.48;;
40244;SDS011;25963;42.694;23.600;2022-12-07T05:20:04;41.03;;;19.33;;
40244;SDS011;25963;42.694;23.600;2022-12-07T05:22:30;41.00;;;19.48;;
40244;SDS011;25963;42.694;23.600;2022-12-07T05:24:55;40.05;;;20.88;;
40244;SDS011;25963;42.694;23.600;2022-12-07T05:27:21;43.33;;;21.63;;
40244;SDS011;25963;42.694;23.600;2022-12-07T05:29:46;42.85;;;21.80;;
40244;SDS011;25963;42.694;23.600;2022-12-07T05:32:12;44.40;;;24.00;;
40244;SDS011;25963;42.694;23.600;2022-12-07T05:34:37;54.58;;;23.48;;
40244;SDS011;25963;42.694;23.600;2022-12-07T05:37:03;45.00;;;21.33;;
40244;SDS011;25963;42.694;23.600;2022-12-07T05:39:28;49.58;;;21.30;;
40244;SDS011;25963;42.694;23.600;2022-12-07T05:41:54;60.97;;;28.80;;
40244;SDS011;25963;42.694;23.600;2022-12-07T05:44:44;44.58;;;22.60;;
40244;SDS011;25963;42.694;23.600;2022-12-07T05:47:11;47.95;;;22.52;;
40244;SDS011;25963;42.694;23.600;2022-12-07T05:49:38;52.65;;;22.98;;
40244;SDS011;25963;42.694;23.600;2022-12-07T05:52:03;69.25;;;34.30;;
40244;SDS011;25963;42.694;23.600;2022-12-07T05:54:29;56.03;;;26.40;;
40244;SDS011;25963;42.694;23.600;2022-12-07T05:56:55;51.30;;;23.55;;
40244;SDS011;25963;42.694;23.600;2022-12-07T05:59:20;51.08;;;23.67;;
40244;SDS011;25963;42.694;23.600;2022-12-07T06:01:56;52.75;;;23.00;;
40244;SDS011;25963;42.694;23.600;2022-12-07T06:04:27;56.72;;;27.00;;
40244;SDS011;25963;42.694;23.600;2022-12-07T06:06:54;69.03;;;34.78;;
40244;SDS011;25963;42.694;23.600;2022-12-07T06:09:21;65.40;;;33.20;;
40244;SDS011;25963;42.694;23.600;2022-12-07T06:11:47;62.65;;;27.92;;
40244;SDS011;25963;42.694;23.600;2022-12-07T06:14:31;54.40;;;26.05;;
40244;SDS011;25963;42.694;23.600;2022-12-07T06:16:57;59.75;;;26.33;;
40244;SDS011;25963;42.694;23.600;2022-12-07T06:19:23;60.03;;;24.38;;
40244;SDS011;25963;42.694;23.600;2022-12-07T06:21:48;49.15;;;24.13;;
40244;SDS011;25963;42.694;23.600;2022-12-07T06:24:14;58.83;;;27.83;;
40244;SDS011;25963;42.694;23.600;2022-12-07T06:26:41;61.33;;;29.88;;
40244;SDS011;25963;42.694;23.600;2022-12-07T06:29:08;66.50;;;31.15;;
40244;SDS011;25963;42.694;23.600;2022-12-07T06:31:35;59.78;;;27.85;;
40244;SDS011;25963;42.694;23.600;2022-12-07T06:34:02;54.05;;;25.70;;
40244;SDS011;25963;42.694;23.600;2022-12-07T06:36:30;63.60;;;27.00;;
40244;SDS011;25963;42.694;23.600;2022-12-07T06:38:55;58.47;;;28.90;;
40244;SDS011;25963;42.694;23.600;2022-12-07T06:41:21;50.80;;;23.35;;
40244;SDS011;25963;42.694;23.600;2022-12-07T06:43:47;50.75;;;22.45;;
40244;SDS011;25963;42.694;23.600;2022-12-07T06:46:13;40.70;;;18.60;;
40244;SDS011;25963;42.694;23.600;2022-12-07T06:48:39;45.50;;;19.90;;
40244;SDS011;25963;42.694;23.600;2022-12-07T06:51:05;48.58;;;21.15;;
40244;SDS011;25963;42.694;23.600;2022-12-07T06:53:31;50.35;;;23.75;;
40244;SDS011;25963;42.694;23.600;2022-12-07T06:55:56;52.58;;;24.75;;
40244;SDS011;25963;42.694;23.600;2022-12-07T06:58:22;53.22;;;23.15;;
40244;SDS011;25963;42.694;23.600;2022-12-07T07:00:47;53.10;;;24.45;;
40244;SDS011;25963;42.694;23.600;2022-12-07T07:03:14;94.28;;;37.20;;
40244;SDS011;25963;42.694;23.600;2022-12-07T07:05:40;67.85;;;29.67;;
40244;SDS011;25963;42.694;23.600;2022-12-07T07:08:06;56.13;;;24.55;;
40244;SDS011;25963;42.694;23.600;2022-12-07T07:10:35;56.05;;;25.20;;
40244;SDS011;25963;42.694;23.600;2022-12-07T07:13:01;57.63;;;26.35;;
40244;SDS011;25963;42.694;23.600;2022-12-07T07:15:26;152.07;;;55.88;;
40244;SDS011;25963;42.694;23.600;2022-12-07T07:17:52;71.32;;;33.55;;
40244;SDS011;25963;42.694;23.600;2022-12-07T07:20:17;109.78;;;44.95;;
40244;SDS011;25963;42.694;23.600;2022-12-07T07:22:43;86.13;;;36.05;;
40244;SDS011;25963;42.694;23.600;2022-12-07T07:25:08;65.00;;;30.73;;
40244;SDS011;25963;42.694;23.600;2022-12-07T07:27:34;52.13;;;26.25;;
40244;SDS011;25963;42.694;23.600;2022-12-07T07:29:59;61.10;;;30.13;;
40244;SDS011;25963;42.694;23.600;2022-12-07T07:32:25;58.97;;;29.98;;
40244;SDS011;25963;42.694;23.600;2022-12-07T07:34:50;62.38;;;31.75;;
40244;SDS011;25963;42.694;23.600;2022-12-07T07:37:16;60.50;;;31.20;;
40244;SDS011;25963;42.694;23.600;2022-12-07T07:39:41;56.75;;;31.92;;
40244;SDS011;25963;42.694;23.600;2022-12-07T07:42:07;55.33;;;28.10;;
40244;SDS011;25963;42.694;23.600;2022-12-07T07:44:32;57.80;;;27.25;;
40244;SDS011;25963;42.694;23.600;2022-12-07T07:46:59;47.88;;;24.67;;
40244;SDS011;25963;42.694;23.600;2022-12-07T07:49:25;43.60;;;22.35;;
40244;SDS011;25963;42.694;23.600;2022-12-07T07:51:50;38.42;;;20.55;;
40244;SDS011;25963;42.694;23.600;2022-12-07T07:54:16;40.38;;;22.58;;
40244;SDS011;25963;42.694;23.600;2022-12-07T07:56:41;48.78;;;26.90;;
40244;SDS011;25963;42.694;23.600;2022-12-07T07:59:07;67.65;;;34.15;;
40244;SDS011;25963;42.694;23.600;2022-12-07T08:01:33;80.85;;;36.75;;
40244;SDS011;25963;42.694;23.600;2022-12-07T08:03:58;66.47;;;34.40;;
40244;SDS011;25963;42.694;23.600;2022-12-07T08:06:24;52.95;;;26.85;;
40244;SDS011;25963;42.694;23.600;2022-12-07T08:08:49;56.80;;;30.00;;
40244;SDS011;25963;42.694;23.600;2022-12-07T08:11:15;38.92;;;22.02;;
40244;SDS011;25963;42.694;23.600;2022-12-07T08:13:40;43.95;;;23.88;;
40244;SDS011;25963;42.694;23.600;2022-12-07T08:16:06;47.60;;;24.15;;
40244;SDS011;25963;42.694;23.600;2022-12-07T08:18:38;34.75;;;18.75;;
40244;SDS011;25963;42.694;23.600;2022-12-07T08:21:04;37.40;;;19.23;;
40244;SDS011;25963;42.694;23.600;2022-12-07T08:23:32;44.05;;;21.25;;
40244;SDS011;25963;42.694;23.600;2022-12-07T08:26:02;44.45;;;21.40;;
40244;SDS011;25963;42.694;23.600;2022-12-07T08:28:28;40.15;;;22.52;;
40244;SDS011;25963;42.694;23.600;2022-12-07T08:31:04;42.25;;;18.05;;
40244;SDS011;25963;42.694;23.600;2022-12-07T08:33:33;41.15;;;21.48;;
40244;SDS011;25963;42.694;23.600;2022-12-07T08:36:06;34.85;;;18.70;;
40244;SDS011;25963;42.694;23.600;2022-12-07T08:38:34;57.05;;;27.48;;
40244;SDS011;25963;42.694;23.600;2022-12-07T08:41:01;40.75;;;22.40;;
40244;SDS011;25963;42.694;23.600;2022-12-07T08:43:26;31.23;;;16.92;;
40244;SDS011;25963;42.694;23.600;2022-12-07T08:48:48;28.63;;;15.70;;
40244;SDS011;25963;42.694;23.600;2022-12-07T08:51:16;27.60;;;16.42;;
40244;SDS011;25963;42.694;23.600;2022-12-07T08:53:41;28.40;;;15.75;;
40244;SDS011;25963;42.694;23.600;2022-12-07T08:56:08;24.60;;;14.05;;
40244;SDS011;25963;42.694;23.600;2022-12-07T08:58:34;26.00;;;14.88;;
40244;SDS011;25963;42.694;23.600;2022-12-07T09:01:02;24.45;;;14.45;;
40244;SDS011;25963;42.694;23.600;2022-12-07T09:03:27;46.13;;;24.08;;
40244;SDS011;25963;42.694;23.600;2022-12-07T09:05:53;27.27;;;13.75;;
40244;SDS011;25963;42.694;23.600;2022-12-07T09:08:19;30.95;;;19.55;;
40244;SDS011;25963;42.694;23.600;2022-12-07T09:10:45;22.08;;;12.75;;
40244;SDS011;25963;42.694;23.600;2022-12-07T09:13:12;21.30;;;14.13;;
40244;SDS011;25963;42.694;23.600;2022-12-07T09:15:38;21.88;;;11.75;;
40244;SDS011;25963;42.694;23.600;2022-12-07T09:18:03;23.42;;;13.23;;
40244;SDS011;25963;42.694;23.600;2022-12-07T09:20:29;24.60;;;14.90;;
40244;SDS011;25963;42.694;23.600;2022-12-07T09:22:54;24.98;;;12.52;;
40244;SDS011;25963;42.694;23.600;2022-12-07T09:25:20;21.88;;;12.50;;
40244;SDS011;25963;42.694;23.600;2022-12-07T09:27:45;22.60;;;13.63;;
40244;SDS011;25963;42.694;23.600;2022-12-07T09:30:11;26.42;;;14.70;;
40244;SDS011;25963;42.694;23.600;2022-12-07T09:32:36;28.70;;;13.70;;
40244;SDS011;25963;42.694;23.600;2022-12-07T09:35:02;19.98;;;11.95;;
40244;SDS011;25963;42.694;23.600;2022-12-07T09:37:27;20.40;;;13.65;;
40244;SDS011;25963;42.694;23.600;2022-12-07T09:39:53;23.15;;;13.45;;
40244;SDS011;25963;42.694;23.600;2022-12-07T09:42:52;20.88;;;13.00;;
40244;SDS011;25963;42.694;23.600;2022-12-07T09:45:14;26.40;;;19.00;;
40244;SDS011;25963;42.694;23.600;2022-12-07T09:47:43;21.73;;;13.30;;
40244;SDS011;25963;42.694;23.600;2022-12-07T09:50:14;20.52;;;13.30;;
40244;SDS011;25963;42.694;23.600;2022-12-07T09:52:42;24.77;;;12.85;;
40244;SDS011;25963;42.694;23.600;2022-12-07T09:55:15;17.63;;;11.35;;
40244;SDS011;25963;42.694;23.600;2022-12-07T09:58:02;14.93;;;9.90;;
40244;SDS011;25963;42.694;23.600;2022-12-07T10:00:29;18.38;;;13.55;;
40244;SDS011;25963;42.694;23.600;2022-12-07T10:02:55;20.13;;;11.43;;
40244;SDS011;25963;42.694;23.600;2022-12-07T10:05:35;29.05;;;18.52;;
40244;SDS011;25963;42.694;23.600;2022-12-07T10:08:03;20.45;;;11.23;;
40244;SDS011;25963;42.694;23.600;2022-12-07T10:10:30;17.77;;;11.85;;
40244;SDS011;25963;42.694;23.600;2022-12-07T10:12:58;19.23;;;11.88;;
40244;SDS011;25963;42.694;23.600;2022-12-07T10:18:18;22.02;;;12.90;;
40244;SDS011;25963;42.694;23.600;2022-12-07T10:21:03;19.20;;;12.75;;
40244;SDS011;25963;42.694;23.600;2022-12-07T10:23:37;22.50;;;12.35;;
40244;SDS011;25963;42.694;23.600;2022-12-07T10:26:24;22.30;;;11.95;;
40244;SDS011;25963;42.694;23.600;2022-12-07T10:29:00;23.40;;;14.82;;
40244;SDS011;25963;42.694;23.600;2022-12-07T10:31:38;35.30;;;21.77;;
40244;SDS011;25963;42.694;23.600;2022-12-07T10:34:12;22.40;;;13.73;;
40244;SDS011;25963;42.694;23.600;2022-12-07T10:42:08;21.48;;;12.57;;
40244;SDS011;25963;42.694;23.600;2022-12-07T10:44:49;25.42;;;13.13;;
40244;SDS011;25963;42.694;23.600;2022-12-07T10:47:36;23.40;;;12.45;;
40244;SDS011;25963;42.694;23.600;2022-12-07T10:53:40;21.85;;;14.23;;
40244;SDS011;25963;42.694;23.600;2022-12-07T10:59:17;17.52;;;10.65;;
40244;SDS011;25963;42.694;23.600;2022-12-07T11:02:25;18.17;;;9.77;;
40244;SDS011;25963;42.694;23.600;2022-12-07T11:07:40;20.13;;;11.85;;
40244;SDS011;25963;42.694;23.600;2022-12-07T11:18:18;18.15;;;11.88;;
40244;SDS011;25963;42.694;23.600;2022-12-07T11:23:56;30.80;;;17.02;;
40244;SDS011;25963;42.694;23.600;2022-12-07T11:33:00;21.70;;;14.90;;
40244;SDS011;25963;42.694;23.600;2022-12-07T11:35:51;23.52;;;14.00;;
40244;SDS011;25963;42.694;23.600;2022-12-07T11:41:05;20.73;;;9.65;;
40244;SDS011;25963;42.694;23.600;2022-12-07T11:43:37;18.67;;;11.15;;
40244;SDS011;25963;42.694;23.600;2022-12-07T11:46:15;18.13;;;10.25;;
40244;SDS011;25963;42.694;23.600;2022-12-07T11:48:54;18.50;;;10.45;;
40244;SDS011;25963;42.694;23.600;2022-12-07T11:51:22;16.13;;;10.68;;
40244;SDS011;25963;42.694;23.600;2022-12-07T11:56:19;18.33;;;9.65;;
40244;SDS011;25963;42.694;23.600;2022-12-07T12:03:40;13.73;;;9.88;;
40244;SDS011;25963;42.694;23.600;2022-12-07T12:06:09;18.80;;;10.77;;
40244;SDS011;25963;42.694;23.600;2022-12-07T12:08:36;17.90;;;10.80;;
40244;SDS011;25963;42.694;23.600;2022-12-07T12:19:35;17.73;;;10.55;;
40244;SDS011;25963;42.694;23.600;2022-12-07T12:22:14;18.15;;;10.65;;
40244;SDS011;25963;42.694;23.600;2022-12-07T12:24:43;17.38;;;11.40;;
40244;SDS011;25963;42.694;23.600;2022-12-07T12:27:30;22.08;;;12.75;;
40244;SDS011;25963;42.694;23.600;2022-12-07T12:30:00;23.08;;;13.93;;
40244;SDS011;25963;42.694;23.600;2022-12-07T12:32:38;15.00;;;10.57;;
40244;SDS011;25963;42.694;23.600;2022-12-07T12:37:57;21.17;;;13.23;;
40244;SDS011;25963;42.694;23.600;2022-12-07T12:41:51;23.92;;;13.10;;
40244;SDS011;25963;42.694;23.600;2022-12-07T12:52:49;28.67;;;16.75;;
40244;SDS011;25963;42.694;23.600;2022-12-07T12:55:18;27.33;;;17.23;;
40244;SDS011;25963;42.694;23.600;2022-12-07T12:57:49;22.83;;;14.27;;
40244;SDS011;25963;42.694;23.600;2022-12-07T13:00:47;29.83;;;19.45;;
40244;SDS011;25963;42.694;23.600;2022-12-07T13:03:27;25.45;;;16.45;;
40244;SDS011;25963;42.694;23.600;2022-12-07T13:08:42;25.55;;;16.15;;
40244;SDS011;25963;42.694;23.600;2022-12-07T13:16:59;51.63;;;29.52;;
40244;SDS011;25963;42.694;23.600;2022-12-07T13:19:53;63.47;;;36.83;;
40244;SDS011;25963;42.694;23.600;2022-12-07T13:24:58;30.77;;;17.95;;
40244;SDS011;25963;42.694;23.600;2022-12-07T13:27:32;25.27;;;15.25;;
40244;SDS011;25963;42.694;23.600;2022-12-07T13:29:59;56.17;;;28.95;;
40244;SDS011;25963;42.694;23.600;2022-12-07T13:32:27;28.77;;;16.75;;
40244;SDS011;25963;42.694;23.600;2022-12-07T13:34:53;25.90;;;15.10;;
40244;SDS011;25963;42.694;23.600;2022-12-07T13:37:29;24.55;;;15.05;;
40244;SDS011;25963;42.694;23.600;2022-12-07T13:39:58;39.03;;;21.02;;
40244;SDS011;25963;42.694;23.600;2022-12-07T13:44:53;93.22;;;54.63;;
40244;SDS011;25963;42.694;23.600;2022-12-07T13:47:20;38.53;;;24.05;;
40244;SDS011;25963;42.694;23.600;2022-12-07T13:50:23;82.10;;;44.60;;
40244;SDS011;25963;42.694;23.600;2022-12-07T13:52:50;56.53;;;35.10;;
40244;SDS011;25963;42.694;23.600;2022-12-07T13:55:20;40.47;;;25.15;;
40244;SDS011;25963;42.694;23.600;2022-12-07T13:57:47;35.85;;;23.08;;
40244;SDS011;25963;42.694;23.600;2022-12-07T14:00:16;43.30;;;22.98;;
40244;SDS011;25963;42.694;23.600;2022-12-07T14:02:56;49.17;;;27.92;;
40244;SDS011;25963;42.694;23.600;2022-12-07T14:05:27;38.70;;;20.40;;
40244;SDS011;25963;42.694;23.600;2022-12-07T14:08:03;23.65;;;13.32;;
40244;SDS011;25963;42.694;23.600;2022-12-07T14:10:31;22.70;;;12.05;;
40244;SDS011;25963;42.694;23.600;2022-12-07T14:13:01;31.37;;;19.40;;
40244;SDS011;25963;42.694;23.600;2022-12-07T14:15:44;25.30;;;17.08;;
40244;SDS011;25963;42.694;23.600;2022-12-07T14:21:18;20.13;;;10.85;;
40244;SDS011;25963;42.694;23.600;2022-12-07T14:26:35;31.08;;;18.20;;
40244;SDS011;25963;42.694;23.600;2022-12-07T14:31:51;36.47;;;22.60;;
40244;SDS011;25963;42.694;23.600;2022-12-07T14:34:21;39.55;;;24.25;;
40244;SDS011;25963;42.694;23.600;2022-12-07T14:36:47;34.65;;;18.77;;
40244;SDS011;25963;42.694;23.600;2022-12-07T14:39:12;36.00;;;21.42;;
40244;SDS011;25963;42.694;23.600;2022-12-07T14:41:38;34.50;;;18.58;;
40244;SDS011;25963;42.694;23.600;2022-12-07T14:44:15;53.78;;;26.92;;
40244;SDS011;25963;42.694;23.600;2022-12-07T14:46:43;33.65;;;17.23;;
40244;SDS011;25963;42.694;23.600;2022-12-07T14:49:08;47.00;;;23.33;;
40244;SDS011;25963;42.694;23.600;2022-12-07T14:51:33;65.70;;;29.85;;
40244;SDS011;25963;42.694;23.600;2022-12-07T14:54:03;45.40;;;19.67;;
40244;SDS011;25963;42.694;23.600;2022-12-07T14:56:30;55.72;;;28.17;;
40244;SDS011;25963;42.694;23.600;2022-12-07T14:58:55;34.60;;;19.48;;
40244;SDS011;25963;42.694;23.600;2022-12-07T15:01:21;112.07;;;48.90;;
40244;SDS011;25963;42.694;23.600;2022-12-07T15:03:46;77.82;;;35.45;;
40244;SDS011;25963;42.694;23.600;2022-12-07T15:06:16;145.85;;;58.30;;
40244;SDS011;25963;42.694;23.600;2022-12-07T15:08:42;25.13;;;14.30;;
40244;SDS011;25963;42.694;23.600;2022-12-07T15:11:16;34.08;;;18.15;;
40244;SDS011;25963;42.694;23.600;2022-12-07T15:13:42;74.95;;;32.45;;
40244;SDS011;25963;42.694;23.600;2022-12-07T15:16:26;71.60;;;31.08;;
40244;SDS011;25963;42.694;23.600;2022-12-07T15:18:52;153.27;;;65.13;;
40244;SDS011;25963;42.694;23.600;2022-12-07T15:21:17;89.85;;;44.30;;
40244;SDS011;25963;42.694;23.600;2022-12-07T15:23:43;66.28;;;34.08;;
40244;SDS011;25963;42.694;23.600;2022-12-07T15:26:10;19.13;;;11.20;;
40244;SDS011;25963;42.694;23.600;2022-12-07T15:28:36;17.63;;;10.55;;
40244;SDS011;25963;42.694;23.600;2022-12-07T15:31:02;19.23;;;10.70;;
40244;SDS011;25963;42.694;23.600;2022-12-07T15:33:27;23.92;;;14.00;;
40244;SDS011;25963;42.694;23.600;2022-12-07T15:35:53;33.88;;;16.45;;
40244;SDS011;25963;42.694;23.600;2022-12-07T15:38:19;61.85;;;37.28;;
40244;SDS011;25963;42.694;23.600;2022-12-07T15:40:48;53.85;;;34.03;;
40244;SDS011;25963;42.694;23.600;2022-12-07T15:43:13;34.30;;;18.73;;
40244;SDS011;25963;42.694;23.600;2022-12-07T15:45:57;47.40;;;26.85;;
40244;SDS011;25963;42.694;23.600;2022-12-07T15:48:24;37.72;;;21.60;;
40244;SDS011;25963;42.694;23.600;2022-12-07T15:50:50;68.70;;;34.25;;
40244;SDS011;25963;42.694;23.600;2022-12-07T15:53:15;118.63;;;63.05;;
40244;SDS011;25963;42.694;23.600;2022-12-07T15:55:41;131.23;;;68.07;;
40244;SDS011;25963;42.694;23.600;2022-12-07T15:58:06;26.38;;;14.40;;
40244;SDS011;25963;42.694;23.600;2022-12-07T16:00:32;26.30;;;14.32;;
40244;SDS011;25963;42.694;23.600;2022-12-07T16:02:58;25.80;;;15.98;;
40244;SDS011;25963;42.694;23.600;2022-12-07T16:05:23;29.15;;;16.73;;
40244;SDS011;25963;42.694;23.600;2022-12-07T16:07:48;29.35;;;18.08;;
40244;SDS011;25963;42.694;23.600;2022-12-07T16:10:14;20.80;;;13.05;;
40244;SDS011;25963;42.694;23.600;2022-12-07T16:12:39;23.77;;;12.02;;
40244;SDS011;25963;42.694;23.600;2022-12-07T16:15:05;25.15;;;15.85;;
40244;SDS011;25963;42.694;23.600;2022-12-07T16:17:31;28.85;;;15.20;;
40244;SDS011;25963;42.694;23.600;2022-12-07T16:19:56;27.75;;;14.77;;
40244;SDS011;25963;42.694;23.600;2022-12-07T16:22:22;29.02;;;20.10;;
40244;SDS011;25963;42.694;23.600;2022-12-07T16:24:48;23.27;;;13.80;;
40244;SDS011;25963;42.694;23.600;2022-12-07T16:27:13;25.55;;;13.77;;
40244;SDS011;25963;42.694;23.600;2022-12-07T16:29:39;25.20;;;13.40;;